UTA315 USNN-USHH
Flight info
| Callsign | UTA315 |
|---|---|
| Flight time | N/A |
| Altitude | 20000 |
| Route | SUGUP1N SUGUP G484 RALEM RALEM1H |
| Aircraft | AT76/M-SDFGIRY/S |
Departure
| Time | N/A |
|---|---|
| Airport | Nizhnevartovsk Airport (USNN) |
Arrival
| Time | 2026-04-22 16:19 |
|---|---|
| Airport | Khanty Mansiysk Airport (USHH) |
| Time | Latitude | Longitude | Altitude | Speed | Heading |
|---|---|---|---|---|---|
| 2026-04-22 16:06 | 61.05127 | 69.95986 | 13720 ft | 214 kts | 290° |
| 2026-04-22 16:07 | 61.05782 | 69.93282 | 12915 ft | 211 kts | 289° |
| 2026-04-22 16:07 | 61.06414 | 69.90558 | 12096 ft | 209 kts | 289° |
| 2026-04-22 16:07 | 61.07041 | 69.87847 | 11298 ft | 207 kts | 290° |
| 2026-04-22 16:07 | 61.07648 | 69.85205 | 10517 ft | 205 kts | 290° |
| 2026-04-22 16:08 | 61.08256 | 69.82540 | 9751 ft | 203 kts | 291° |
| 2026-04-22 16:08 | 61.08848 | 69.79902 | 8944 ft | 198 kts | 290° |
| 2026-04-22 16:08 | 61.09120 | 69.77237 | 8134 ft | 188 kts | 271° |
| 2026-04-22 16:08 | 61.09170 | 69.74555 | 7641 ft | 193 kts | 268° |
| 2026-04-22 16:09 | 61.09203 | 69.71711 | 7169 ft | 201 kts | 269° |
| 2026-04-22 16:09 | 61.09249 | 69.68823 | 6707 ft | 205 kts | 270° |
| 2026-04-22 16:09 | 61.09327 | 69.65833 | 6251 ft | 209 kts | 270° |
| 2026-04-22 16:09 | 61.09416 | 69.62812 | 5773 ft | 211 kts | 270° |
| 2026-04-22 16:10 | 61.09426 | 69.59844 | 5288 ft | 206 kts | 259° |
| 2026-04-22 16:10 | 61.09093 | 69.56968 | 4812 ft | 205 kts | 252° |
| 2026-04-22 16:10 | 61.08682 | 69.54137 | 4329 ft | 205 kts | 252° |
| 2026-04-22 16:10 | 61.08271 | 69.51346 | 3842 ft | 205 kts | 252° |
| 2026-04-22 16:11 | 61.07893 | 69.48578 | 3351 ft | 188 kts | 253° |
| 2026-04-22 16:11 | 61.07571 | 69.46084 | 2880 ft | 171 kts | 254° |
| 2026-04-22 16:11 | 61.07278 | 69.43797 | 2491 ft | 156 kts | 254° |
| 2026-04-22 16:11 | 61.07022 | 69.41807 | 2352 ft | 137 kts | 254° |
| 2026-04-22 16:12 | 61.06541 | 69.37997 | 2061 ft | 122 kts | 254° |
| 2026-04-22 16:12 | 61.06334 | 69.36355 | 1931 ft | 118 kts | 254° |
| 2026-04-22 16:12 | 61.06130 | 69.34746 | 1800 ft | 114 kts | 253° |
| 2026-04-22 16:13 | 61.05937 | 69.33174 | 1679 ft | 111 kts | 254° |
| 2026-04-22 16:13 | 61.05757 | 69.31689 | 1590 ft | 97 kts | 254° |
| 2026-04-22 16:13 | 61.05607 | 69.30437 | 1480 ft | 84 kts | 253° |
| 2026-04-22 16:13 | 61.05467 | 69.29268 | 1380 ft | 86 kts | 252° |
| 2026-04-22 16:14 | 61.05319 | 69.28043 | 1293 ft | 89 kts | 253° |
| 2026-04-22 16:14 | 61.05160 | 69.26809 | 1219 ft | 91 kts | 252° |
| 2026-04-22 16:14 | 61.04994 | 69.25535 | 1125 ft | 92 kts | 252° |
| 2026-04-22 16:14 | 61.04831 | 69.24259 | 1024 ft | 93 kts | 253° |
| 2026-04-22 16:15 | 61.04673 | 69.22950 | 951 ft | 95 kts | 253° |
| 2026-04-22 16:15 | 61.04647 | 69.22740 | 936 ft | 96 kts | 252° |
| 2026-04-22 16:16 | 61.04631 | 69.22619 | 926 ft | 96 kts | 252° |
| 2026-04-22 16:16 | 61.04534 | 69.21875 | 879 ft | 98 kts | 253° |
| 2026-04-22 16:16 | 61.04473 | 69.21402 | 846 ft | 98 kts | 253° |
| 2026-04-22 16:16 | 61.04299 | 69.20031 | 755 ft | 99 kts | 253° |
| 2026-04-22 16:17 | 61.04189 | 69.19115 | 706 ft | 100 kts | 253° |
| 2026-04-22 16:17 | 61.04027 | 69.17721 | 613 ft | 99 kts | 252° |
| 2026-04-22 16:17 | 61.03852 | 69.16377 | 534 ft | 92 kts | 248° |
| 2026-04-22 16:17 | 61.03711 | 69.15337 | 505 ft | 93 kts | 251° |
| 2026-04-22 16:18 | 61.03651 | 69.14868 | 470 ft | 95 kts | 250° |
| 2026-04-22 16:18 | 61.03542 | 69.14041 | 413 ft | 97 kts | 254° |
| 2026-04-22 16:18 | 61.03367 | 69.12656 | 317 ft | 100 kts | 252° |
| 2026-04-22 16:19 | 61.03193 | 69.11307 | 221 ft | 96 kts | 254° |
| 2026-04-22 16:19 | 61.03036 | 69.10033 | 146 ft | 87 kts | 253° |
| 2026-04-22 16:19 | 61.02960 | 69.09445 | 142 ft | 8 kts | 255° |
| 2026-04-22 16:19 | 61.02917 | 69.09195 | 144 ft | 17 kts | 224° |
| 2026-04-22 16:20 | 61.02823 | 69.09193 | 142 ft | 13 kts | 164° |
| 2026-04-22 16:20 | 61.02760 | 69.09284 | 142 ft | 10 kts | 123° |
| 2026-04-22 16:20 | 61.02726 | 69.09301 | 142 ft | 4 kts | 209° |